X  Κλείσε Στοιχεία αεροπορικών μετεωρολογικών δεδομένων METAR     LGTS Thessaloniki Macedonia International Airport
θερμοκρασία
27°C θερμοκρασία
21°C Σημείο δρόσου
70% Υγρασία



Ανεμος
6 MPH
10 KM/H
3 M/S
5 KTS



70°
AVA
Τρέχουσες συνθήκες

Μερικώς συννεφιασμένος Μερικώς συννεφιασμένος
πίεση 1009.82 (hPa) - 29.82 (inHg)
Ορατότητα 6 (μίλι) - 9.7 (km)
Aεροδρόμιο
Κωδικός αεροδρομίου LGTS

Τοποθεσία: Thessaloniki Macedonia International Airport
Απόσταση: 85 (mi)

Metar:
LGTS 122250Z 07005KT 9999 FEW030 27/21 Q1010 NOSIG

ώρα: 13-07-2024 01:50 EEST